createdAt,value
2018-02-18T00:01:59.536Z,74.35
2018-02-18T00:04:30.885Z,74.54
2018-02-18T00:07:01.161Z,74.12
2018-02-18T00:09:32.105Z,74.39
2018-02-18T00:12:02.372Z,74.44
2018-02-18T00:17:36.956Z,74.37
2018-02-18T00:20:05.931Z,74.41
2018-02-18T00:22:34.734Z,74.99
2018-02-18T00:25:03.787Z,75.21
2018-02-18T00:27:32.721Z,75.37
2018-02-18T00:30:01.602Z,75.49
2018-02-18T00:32:30.431Z,77.04
2018-02-18T00:34:59.511Z,76.97
2018-02-18T00:37:28.582Z,77.58
2018-02-18T00:39:57.644Z,76.95
2018-02-18T00:42:26.939Z,76.45
2018-02-18T00:44:56.143Z,76.21
2018-02-18T00:47:25.152Z,76.06
2018-02-18T00:49:54.226Z,75.79
2018-02-18T00:52:23.259Z,76.23
2018-02-18T00:54:52.397Z,75.73
2018-02-18T00:57:21.820Z,75.35
2018-02-18T00:59:50.898Z,75.46
2018-02-18T01:02:21.624Z,75.38
2018-02-18T01:04:52.138Z,75.06
2018-02-18T01:07:22.931Z,75.34
2018-02-18T01:09:53.804Z,75.09
2018-02-18T01:12:24.714Z,75.16
2018-02-18T01:14:55.571Z,75.17
2018-02-18T01:17:26.508Z,76.47
2018-02-18T01:19:57.854Z,76.28
2018-02-18T01:22:28.383Z,76.79
2018-02-18T01:24:58.881Z,77.76
2018-02-18T01:27:29.384Z,78.46
2018-02-18T01:30:00.100Z,78.13
2018-02-18T01:32:31.034Z,78.27
2018-02-18T01:35:01.748Z,79.35
2018-02-18T01:37:32.656Z,78.89
2018-02-18T01:40:03.513Z,79.38
2018-02-18T01:42:36.135Z,80.48
2018-02-18T01:45:06.423Z,80.48
2018-02-18T01:47:36.950Z,81.31
2018-02-18T01:50:18.734Z,81.71
2018-02-18T01:52:47.988Z,81.42
2018-02-18T01:55:17.299Z,80.48
2018-02-18T01:57:46.392Z,80.81
2018-02-18T02:00:15.534Z,80.79
2018-02-18T02:02:44.630Z,80.18
2018-02-18T02:05:13.800Z,79.86
2018-02-18T02:07:44.410Z,80.88
2018-02-18T02:10:14.803Z,80.49
2018-02-18T02:12:45.311Z,81.08
2018-02-18T02:15:15.884Z,81.46
2018-02-18T02:17:46.765Z,81.14
2018-02-18T02:20:17.600Z,80.81
2018-02-18T02:22:48.139Z,80.93
2018-02-18T02:25:18.776Z,80.71
2018-02-18T02:27:49.936Z,80.96
2018-02-18T02:30:20.759Z,80.87
2018-02-18T02:32:52.052Z,81.43
2018-02-18T02:35:22.556Z,80.86
2018-02-18T02:37:52.784Z,80.43
2018-02-18T02:40:23.353Z,80.00
2018-02-18T02:42:54.936Z,80.46
2018-02-18T02:45:25.759Z,80.06
2018-02-18T02:47:56.651Z,79.46
2018-02-18T02:50:27.115Z,79.02
2018-02-18T02:52:57.194Z,78.77
2018-02-18T02:55:28.651Z,79.17
2018-02-18T02:58:00.040Z,78.97
2018-02-18T03:00:30.889Z,78.72
2018-02-18T03:03:01.772Z,78.08
2018-02-18T03:05:32.748Z,78.66
2018-02-18T03:08:03.960Z,79.39
2018-02-18T03:10:34.458Z,79.53
2018-02-18T03:13:04.916Z,79.41
2018-02-18T03:15:35.923Z,79.82
2018-02-18T03:18:06.746Z,80.24
2018-02-18T03:20:37.680Z,79.90
2018-02-18T03:23:08.520Z,79.23
2018-02-18T03:25:40.061Z,78.82
2018-02-18T03:28:10.886Z,78.89
2018-02-18T03:30:41.760Z,79.49
2018-02-18T03:33:12.559Z,79.94
2018-02-18T03:35:43.888Z,79.94
2018-02-18T03:38:14.688Z,79.97
2018-02-18T03:40:45.561Z,79.98
2018-02-18T03:43:16.436Z,79.62
2018-02-18T03:45:54.348Z,79.46
2018-02-18T03:48:23.421Z,78.92
2018-02-18T03:50:52.539Z,78.95
2018-02-18T03:53:21.595Z,78.69
2018-02-18T03:55:52.024Z,78.59
2018-02-18T03:58:22.931Z,78.17
2018-02-18T04:00:53.704Z,78.13
2018-02-18T04:03:24.574Z,77.75
2018-02-18T04:05:55.457Z,77.87
2018-02-18T04:08:25.867Z,77.66
2018-02-18T04:10:56.694Z,77.94
2018-02-18T04:13:27.270Z,78.34
2018-02-18T04:15:57.892Z,77.98
2018-02-18T04:18:28.756Z,77.98
2018-02-18T04:20:59.584Z,77.95
2018-02-18T04:23:29.925Z,78.68
2018-02-18T04:26:00.832Z,78.28
2018-02-18T04:28:31.746Z,77.81
2018-02-18T04:31:02.572Z,77.67
2018-02-18T04:33:33.936Z,77.51
2018-02-18T04:36:04.759Z,77.49
2018-02-18T04:38:35.641Z,77.33
2018-02-18T04:41:06.479Z,76.96
2018-02-18T04:43:37.879Z,76.89
2018-02-18T04:46:08.672Z,77.41
2018-02-18T04:48:39.548Z,77.83
2018-02-18T04:51:10.756Z,77.82
2018-02-18T04:53:41.651Z,77.75
2018-02-18T04:56:12.828Z,77.45
2018-02-18T04:58:43.648Z,77.07
2018-02-18T05:01:14.839Z,76.68
2018-02-18T05:03:45.702Z,76.83
2018-02-18T05:06:16.520Z,76.80
2018-02-18T05:08:47.800Z,76.96
2018-02-18T05:11:18.236Z,76.80
2018-02-18T05:13:48.888Z,76.66
2018-02-18T05:16:19.372Z,76.84
2018-02-18T05:18:49.907Z,77.11
2018-02-18T05:21:20.725Z,76.76
2018-02-18T05:23:51.716Z,76.57
2018-02-18T05:26:22.204Z,76.54
2018-02-18T05:28:52.851Z,76.52
2018-02-18T05:31:23.642Z,77.01
2018-02-18T05:33:54.580Z,77.22
2018-02-18T05:36:25.462Z,76.95
2018-02-18T05:38:56.098Z,76.80
2018-02-18T05:41:26.790Z,76.60
2018-02-18T05:43:57.787Z,77.01
2018-02-18T05:46:28.244Z,77.02
2018-02-18T05:49:00.854Z,77.19
2018-02-18T05:51:30.448Z,77.10
2018-02-18T05:54:00.248Z,77.26
2018-02-18T05:56:30.874Z,77.19
2018-02-18T05:59:01.727Z,77.17
2018-02-18T06:01:32.532Z,77.20
2018-02-18T06:04:03.887Z,77.33
2018-02-18T06:06:34.731Z,77.05
2018-02-18T06:09:04.693Z,77.03
2018-02-18T06:11:35.535Z,76.97
2018-02-18T06:14:06.907Z,76.80
2018-02-18T06:16:37.724Z,77.34
2018-02-18T06:19:08.918Z,77.34
2018-02-18T06:21:39.428Z,77.48
2018-02-18T06:24:09.929Z,77.53
2018-02-18T06:26:40.814Z,77.92
2018-02-18T06:29:11.772Z,78.50
2018-02-18T06:31:42.581Z,78.47
2018-02-18T06:34:13.536Z,78.51
2018-02-18T06:36:44.790Z,78.37
2018-02-18T06:39:15.689Z,78.55
2018-02-18T06:41:46.515Z,78.33
2018-02-18T06:44:17.888Z,77.99
2018-02-18T06:46:48.701Z,77.99
2018-02-18T06:49:19.671Z,77.99
2018-02-18T06:51:50.609Z,77.75
2018-02-18T06:54:21.551Z,77.45
2018-02-18T06:56:51.877Z,77.11
2018-02-18T06:59:22.764Z,76.72
2018-02-18T07:01:53.588Z,76.60
2018-02-18T07:04:24.542Z,76.00
2018-02-18T07:06:55.784Z,74.91
2018-02-18T07:09:26.675Z,74.87
2018-02-18T07:11:57.511Z,73.92
2018-02-18T07:14:28.895Z,74.07
2018-02-18T07:16:59.724Z,73.91
2018-02-18T07:19:30.596Z,73.87
2018-02-18T07:22:01.883Z,73.57
2018-02-18T07:24:33.427Z,73.27
2018-02-18T07:27:02.964Z,73.01
2018-02-18T07:29:33.704Z,72.73
2018-02-18T07:32:04.592Z,72.30
2018-02-18T07:34:35.084Z,71.79
2018-02-18T07:37:05.795Z,72.17
2018-02-18T07:39:36.699Z,72.10
2018-02-18T07:42:07.540Z,71.73
2018-02-18T07:44:38.860Z,72.26
2018-02-18T07:47:09.750Z,71.68
2018-02-18T07:49:41.101Z,71.50
2018-02-18T07:52:11.900Z,71.58
2018-02-18T07:54:42.891Z,71.33
2018-02-18T07:57:13.763Z,72.07
2018-02-18T07:59:44.676Z,72.46
2018-02-18T08:02:15.560Z,72.00
2018-02-18T08:04:46.011Z,71.72
2018-02-18T08:07:16.766Z,72.00
2018-02-18T08:09:47.660Z,71.44
2018-02-18T08:12:18.504Z,71.34
2018-02-18T08:14:49.888Z,70.97
2018-02-18T08:17:20.767Z,71.26
2018-02-18T08:19:51.691Z,71.27
2018-02-18T08:22:22.564Z,71.49
2018-02-18T08:24:53.908Z,71.76
2018-02-18T08:27:24.880Z,71.74
2018-02-18T08:29:55.792Z,71.42
2018-02-18T08:32:26.613Z,70.89
2018-02-18T08:34:57.967Z,71.01
2018-02-18T08:37:28.803Z,70.80
2018-02-18T08:39:59.715Z,70.77
2018-02-18T08:42:30.584Z,70.54
2018-02-18T08:45:01.913Z,70.05
2018-02-18T08:47:32.394Z,70.57
2018-02-18T08:50:02.974Z,70.38
2018-02-18T08:52:33.810Z,70.20
2018-02-18T08:55:04.699Z,70.36
2018-02-18T08:57:36.050Z,70.78
2018-02-18T09:00:06.861Z,70.25
2018-02-18T09:02:37.700Z,70.30
2018-02-18T09:05:08.631Z,70.02
2018-02-18T09:07:39.612Z,69.88
2018-02-18T09:10:10.580Z,69.53
2018-02-18T09:12:41.811Z,69.86
2018-02-18T09:15:12.722Z,70.18
2018-02-18T09:17:43.189Z,69.73
2018-02-18T09:20:13.869Z,69.49
2018-02-18T09:22:44.705Z,68.60
2018-02-18T09:25:15.595Z,69.07
2018-02-18T09:27:46.942Z,68.68
2018-02-18T09:30:17.565Z,68.53
2018-02-18T09:32:47.863Z,67.90
2018-02-18T09:35:18.858Z,67.98
2018-02-18T09:37:49.724Z,67.80
2018-02-18T09:40:20.325Z,67.65
2018-02-18T09:42:51.471Z,67.10
2018-02-18T09:45:22.968Z,67.80
2018-02-18T09:47:54.718Z,67.25
2018-02-18T09:50:25.261Z,66.59
2018-02-18T09:52:55.887Z,67.34
2018-02-18T09:55:27.907Z,66.78
2018-02-18T09:57:58.383Z,67.44
2018-02-18T10:00:28.864Z,67.72
2018-02-18T10:02:59.716Z,67.54
2018-02-18T10:05:30.658Z,66.51
2018-02-18T10:08:01.354Z,66.72
2018-02-18T10:10:31.988Z,66.55
2018-02-18T10:13:02.503Z,66.21
2018-02-18T10:15:32.991Z,66.55
2018-02-18T10:18:03.845Z,66.61
2018-02-18T10:20:34.852Z,66.43
2018-02-18T10:23:05.332Z,66.84
2018-02-18T10:25:36.065Z,66.79
2018-02-18T10:28:06.849Z,65.90
2018-02-18T10:30:37.765Z,66.33
2018-02-18T10:33:08.594Z,66.07
2018-02-18T10:35:40.000Z,65.69
2018-02-18T10:38:10.785Z,64.78
2018-02-18T10:40:41.635Z,64.95
2018-02-18T10:43:12.541Z,65.39
2018-02-18T10:45:43.831Z,65.33
2018-02-18T10:48:14.681Z,64.31
2018-02-18T10:50:46.220Z,65.10
2018-02-18T10:53:17.380Z,65.05
2018-02-18T10:55:48.122Z,65.03
2018-02-18T10:58:18.561Z,64.16
2018-02-18T11:00:48.914Z,64.24
2018-02-18T11:03:19.721Z,64.34
2018-02-18T11:05:50.659Z,64.64
2018-02-18T11:08:21.625Z,64.43
2018-02-18T11:10:52.496Z,64.33
2018-02-18T11:13:23.835Z,64.47
2018-02-18T11:15:54.737Z,64.24
2018-02-18T11:18:26.951Z,63.41
2018-02-18T11:20:57.551Z,64.13
2018-02-18T11:23:27.891Z,64.12
2018-02-18T11:25:58.804Z,63.87
2018-02-18T11:28:29.637Z,63.26
2018-02-18T11:31:00.601Z,62.98
2018-02-18T11:33:31.806Z,62.18
2018-02-18T11:36:02.676Z,62.90
2018-02-18T11:38:33.497Z,62.92
2018-02-18T11:41:03.938Z,60.72
2018-02-18T11:43:34.784Z,61.83
2018-02-18T11:46:05.727Z,62.51
2018-02-18T11:48:37.301Z,62.23
2018-02-18T11:51:07.942Z,62.84
2018-02-18T11:53:38.784Z,61.94
2018-02-18T11:56:09.675Z,62.88
2018-02-18T11:58:40.568Z,62.83
2018-02-18T12:01:12.236Z,62.62
2018-02-18T12:04:01.027Z,62.05
2018-02-18T12:06:29.959Z,60.51
2018-02-18T12:08:59.160Z,61.80
2018-02-18T12:11:28.236Z,60.43
2018-02-18T12:13:57.381Z,61.62
2018-02-18T12:16:26.482Z,60.57
2018-02-18T12:18:55.600Z,60.94
2018-02-18T12:21:24.763Z,61.00
2018-02-18T12:24:10.191Z,60.13
2018-02-18T12:26:39.185Z,60.12
2018-02-18T12:29:08.496Z,59.71
2018-02-18T12:31:37.603Z,60.46
2018-02-18T12:34:06.742Z,60.92
2018-02-18T12:36:35.882Z,60.06
2018-02-18T12:39:04.334Z,60.90
2018-02-18T12:41:33.555Z,60.36
2018-02-18T12:44:02.633Z,59.86
2018-02-18T12:46:31.918Z,60.39
2018-02-18T12:49:01.084Z,60.85
2018-02-18T12:51:30.608Z,60.82
2018-02-18T12:54:01.218Z,60.77
2018-02-18T12:56:30.310Z,60.52
2018-02-18T12:58:59.123Z,59.82
2018-02-18T13:01:28.108Z,59.78
2018-02-18T13:03:57.193Z,58.47
2018-02-18T13:06:26.196Z,57.83
2018-02-18T13:08:55.338Z,56.44
2018-02-18T13:11:24.780Z,55.70
2018-02-18T13:13:53.902Z,54.33
2018-02-18T13:16:22.780Z,54.68
2018-02-18T13:18:51.577Z,53.64
2018-02-18T13:21:20.490Z,53.16
2018-02-18T13:23:49.421Z,52.13
2018-02-18T13:26:18.396Z,51.54
2018-02-18T13:28:47.219Z,47.58
2018-02-18T13:31:16.362Z,48.51
2018-02-18T13:33:45.433Z,48.44
2018-02-18T13:36:14.544Z,49.54
2018-02-18T13:38:43.772Z,49.77
2018-02-18T13:41:12.895Z,45.71
2018-02-18T13:43:42.828Z,49.28
2018-02-18T13:46:12.049Z,48.29
2018-02-18T13:48:41.251Z,48.76
2018-02-18T13:51:10.416Z,47.74
2018-02-18T13:53:41.173Z,47.86
2018-02-18T13:56:10.397Z,47.60
2018-02-18T13:58:39.563Z,47.58
2018-02-18T14:01:08.708Z,47.43
2018-02-18T14:03:38.783Z,47.05
2018-02-18T14:06:09.484Z,45.24
2018-02-18T14:08:38.634Z,45.41
2018-02-18T14:11:09.080Z,45.96
2018-02-18T14:13:41.235Z,45.60
2018-02-18T14:16:10.964Z,44.43
2018-02-18T14:18:40.157Z,44.57
2018-02-18T14:21:09.270Z,44.53
2018-02-18T14:23:38.079Z,44.32
2018-02-18T14:26:07.060Z,43.47
2018-02-18T14:28:35.856Z,42.69
2018-02-18T14:31:04.857Z,42.04
2018-02-18T14:33:34.248Z,42.50
2018-02-18T14:36:04.215Z,42.66
2018-02-18T14:38:33.318Z,42.89
2018-02-18T14:41:02.725Z,43.17
2018-02-18T14:43:44.517Z,43.38
2018-02-18T14:46:26.347Z,43.59
2018-02-18T14:49:06.456Z,42.59
2018-02-18T14:51:47.612Z,43.11
2018-02-18T14:54:30.614Z,42.32
2018-02-18T14:57:07.640Z,43.41
2018-02-18T14:59:36.467Z,43.58
2018-02-18T15:02:05.311Z,43.59
2018-02-18T15:04:34.186Z,43.40
2018-02-18T15:07:03.230Z,43.08
2018-02-18T15:09:32.317Z,43.30
2018-02-18T15:12:01.474Z,43.53
2018-02-18T15:14:30.351Z,43.71
2018-02-18T15:16:59.196Z,43.08
2018-02-18T15:19:28.283Z,43.56
2018-02-18T15:21:57.115Z,44.08
2018-02-18T15:24:26.000Z,44.29
2018-02-18T15:26:54.821Z,44.50
2018-02-18T15:29:23.927Z,44.59
2018-02-18T15:31:52.956Z,45.16
2018-02-18T15:34:21.924Z,45.34
2018-02-18T15:36:51.033Z,45.44
2018-02-18T15:39:19.899Z,45.77
2018-02-18T15:41:49.396Z,46.31
2018-02-18T15:44:18.655Z,46.47
2018-02-18T15:46:47.842Z,46.80
2018-02-18T15:49:17.038Z,47.02
2018-02-18T15:51:46.106Z,47.19
2018-02-18T15:54:15.404Z,47.65
2018-02-18T15:56:44.532Z,47.93
2018-02-18T15:59:13.648Z,47.96
2018-02-18T16:01:43.153Z,48.52
2018-02-18T16:04:12.374Z,48.79
2018-02-18T16:06:41.564Z,49.20
2018-02-18T16:09:12.108Z,49.60
2018-02-18T16:11:42.596Z,49.54
2018-02-18T16:14:12.900Z,49.69
2018-02-18T16:16:43.749Z,49.97
2018-02-18T16:19:14.645Z,50.18
2018-02-18T16:21:45.974Z,50.61
2018-02-18T16:24:16.892Z,50.67
2018-02-18T16:26:47.359Z,51.08
2018-02-18T16:29:17.989Z,51.17
2018-02-18T16:31:52.735Z,51.63
2018-02-18T16:34:22.188Z,51.70
2018-02-18T16:36:51.364Z,52.13
2018-02-18T16:39:20.496Z,52.39
2018-02-18T16:41:50.785Z,53.02
2018-02-18T16:44:21.673Z,53.27
2018-02-18T16:46:52.531Z,53.46
2018-02-18T16:49:23.837Z,53.84
2018-02-18T16:51:54.388Z,54.06
2018-02-18T16:54:25.148Z,54.10
2018-02-18T16:56:56.025Z,54.08
2018-02-18T16:59:27.176Z,54.33
2018-02-18T17:01:58.060Z,54.38
2018-02-18T17:04:28.984Z,54.44
2018-02-18T17:06:59.795Z,54.81
2018-02-18T17:09:30.771Z,54.90
2018-02-18T17:12:01.338Z,55.02
2018-02-18T17:14:32.043Z,55.34
2018-02-18T17:17:02.938Z,55.41
2018-02-18T17:19:33.914Z,55.16
2018-02-18T17:22:04.780Z,55.14
2018-02-18T17:24:35.778Z,55.31
2018-02-18T17:27:06.680Z,55.42
2018-02-18T17:29:38.107Z,55.56
2018-02-18T17:32:08.984Z,55.87
2018-02-18T17:34:39.619Z,55.99
2018-02-18T17:37:10.028Z,56.21
2018-02-18T17:39:40.972Z,56.38
2018-02-18T17:42:11.512Z,56.60
2018-02-18T17:44:43.199Z,56.87
2018-02-18T17:47:13.592Z,57.10
2018-02-18T17:49:44.606Z,57.53
2018-02-18T17:52:15.349Z,57.83
2018-02-18T17:54:46.011Z,58.03
2018-02-18T17:57:16.850Z,58.48
2018-02-18T17:59:48.541Z,58.27
2018-02-18T18:02:19.017Z,58.45
2018-02-18T18:04:49.937Z,58.73
2018-02-18T18:07:25.844Z,59.19
2018-02-18T18:09:55.120Z,59.96
2018-02-18T18:12:24.656Z,61.05
2018-02-18T18:14:53.773Z,60.48
2018-02-18T18:17:25.452Z,60.61
2018-02-18T18:19:55.719Z,60.53
2018-02-18T18:22:26.319Z,60.94
2018-02-18T18:24:57.088Z,61.48
2018-02-18T18:27:28.049Z,60.73
2018-02-18T18:29:58.699Z,61.45
2018-02-18T18:32:29.123Z,61.48
2018-02-18T18:35:00.456Z,61.45
2018-02-18T18:37:31.120Z,61.46
2018-02-18T18:40:00.224Z,61.67
2018-02-18T18:42:31.340Z,61.79
2018-02-18T18:45:02.008Z,62.14
2018-02-18T18:47:33.497Z,62.08
2018-02-18T18:50:05.084Z,62.70
2018-02-18T18:52:35.640Z,62.38
2018-02-18T18:55:06.288Z,62.61
2018-02-18T18:57:37.857Z,63.01
2018-02-18T19:00:08.333Z,62.73
2018-02-18T19:02:39.564Z,62.67
2018-02-18T19:05:10.372Z,62.98
2018-02-18T19:07:41.720Z,62.99
2018-02-18T19:10:13.229Z,62.99
2018-02-18T19:12:44.132Z,62.84
2018-02-18T19:15:14.981Z,62.76
2018-02-18T19:17:45.921Z,63.13
2018-02-18T19:20:16.800Z,62.60
2018-02-18T19:22:48.214Z,62.91
2018-02-18T19:25:19.091Z,63.30
2018-02-18T19:27:50.120Z,63.61
2018-02-18T19:30:20.408Z,63.65
2018-02-18T19:32:51.129Z,64.22
2018-02-18T19:35:22.147Z,64.63
2018-02-18T19:37:53.112Z,64.64
2018-02-18T19:40:23.911Z,63.44
2018-02-18T19:42:54.813Z,64.10
2018-02-18T19:45:25.122Z,64.32
2018-02-18T19:47:55.698Z,64.10
2018-02-18T19:50:26.221Z,64.30
2018-02-18T19:52:57.144Z,64.04
2018-02-18T19:55:27.977Z,64.57
2018-02-18T19:57:58.499Z,63.74
2018-02-18T20:00:29.073Z,63.93
2018-02-18T20:02:59.956Z,64.07
2018-02-18T20:05:30.781Z,64.42
2018-02-18T20:08:02.149Z,64.11
2018-02-18T20:10:33.097Z,64.45
2018-02-18T20:13:04.109Z,64.86
2018-02-18T20:15:34.602Z,64.95
2018-02-18T20:18:05.245Z,65.23
2018-02-18T20:20:36.064Z,64.98
2018-02-18T20:23:07.010Z,64.63
2018-02-18T20:25:37.851Z,64.70
2018-02-18T20:28:08.456Z,64.90
2018-02-18T20:30:39.048Z,65.30
2018-02-18T20:33:10.093Z,65.34
2018-02-18T20:35:40.996Z,64.62
2018-02-18T20:38:11.340Z,64.72
2018-02-18T20:40:42.085Z,64.40
2018-02-18T20:43:12.653Z,64.73
2018-02-18T20:45:43.115Z,64.85
2018-02-18T20:48:13.784Z,64.87
2018-02-18T20:50:44.150Z,64.92
2018-02-18T20:53:15.116Z,64.79
2018-02-18T20:55:45.981Z,64.74
2018-02-18T20:58:16.870Z,64.66
2018-02-18T21:00:47.756Z,64.68
2018-02-18T21:03:19.102Z,64.74
2018-02-18T21:05:50.103Z,64.82
2018-02-18T21:08:21.176Z,64.96
2018-02-18T21:10:51.648Z,65.41
2018-02-18T21:13:22.188Z,65.30
2018-02-18T21:15:53.012Z,64.64
2018-02-18T21:18:23.568Z,65.81
2018-02-18T21:20:54.148Z,65.41
2018-02-18T21:23:25.396Z,65.35
2018-02-18T21:25:55.951Z,65.65
2018-02-18T21:28:26.831Z,65.77
2018-02-18T21:30:57.771Z,65.41
2018-02-18T21:33:29.164Z,65.22
2018-02-18T21:35:59.958Z,65.23
2018-02-18T21:38:30.500Z,65.36
2018-02-18T21:41:00.680Z,65.49
2018-02-18T21:43:35.224Z,65.46
2018-02-18T21:46:04.364Z,65.36
2018-02-18T21:48:33.616Z,65.37
2018-02-18T21:51:04.126Z,65.45
2018-02-18T21:53:35.003Z,64.98
2018-02-18T21:56:05.483Z,65.02
2018-02-18T21:58:36.110Z,65.15
2018-02-18T22:01:06.588Z,65.26
2018-02-18T22:03:37.127Z,64.98
2018-02-18T22:06:07.939Z,65.46
2018-02-18T22:08:38.804Z,65.11
2018-02-18T22:11:10.104Z,65.10
2018-02-18T22:13:40.996Z,65.45
2018-02-18T22:16:12.764Z,65.78
2018-02-18T22:18:42.514Z,65.69
2018-02-18T22:21:13.044Z,65.64
2018-02-18T22:23:43.575Z,66.40
2018-02-18T22:26:14.112Z,66.47
2018-02-18T22:28:44.959Z,66.00
2018-02-18T22:31:15.852Z,66.19
2018-02-18T22:33:47.120Z,65.95
2018-02-18T22:36:17.936Z,66.01
2018-02-18T22:38:48.780Z,66.19
2018-02-18T22:41:20.049Z,65.86
2018-02-18T22:43:51.471Z,66.10
2018-02-18T22:46:22.028Z,66.23
2018-02-18T22:48:53.008Z,65.89
2018-02-18T22:51:23.798Z,66.30
2018-02-18T22:53:55.097Z,65.73
2018-02-18T22:56:25.536Z,66.60
2018-02-18T22:58:56.120Z,66.48
2018-02-18T23:01:26.932Z,66.19
2018-02-18T23:03:57.847Z,66.09
2018-02-18T23:06:28.708Z,66.15
2018-02-18T23:09:00.096Z,66.37
2018-02-18T23:11:30.891Z,65.45
2018-02-18T23:14:01.820Z,66.18
2018-02-18T23:16:32.681Z,66.10
2018-02-18T23:19:03.123Z,66.05
2018-02-18T23:21:34.163Z,66.19
2018-02-18T23:24:05.076Z,66.19
2018-02-18T23:26:35.864Z,66.85
2018-02-18T23:29:06.772Z,67.02
2018-02-18T23:31:38.163Z,66.72
2018-02-18T23:34:08.688Z,66.55
2018-02-18T23:36:39.071Z,67.71
2018-02-18T23:39:09.932Z,66.85
2018-02-18T23:41:40.764Z,66.89
2018-02-18T23:44:12.376Z,66.73
2018-02-18T23:46:47.651Z,67.16
2018-02-18T23:49:16.763Z,67.38
2018-02-18T23:51:45.815Z,67.40
2018-02-18T23:54:15.969Z,67.37
2018-02-18T23:56:46.498Z,66.54
2018-02-18T23:59:17.379Z,67.12
